LICC/CTA METAR and TAF weather

Enter ICAO airport designator
Station Type Date Time Source
LICC METAR 2021/02/27 03:50 UTC NOAA

LICC 270350Z 22004KT CAVOK 04/04 Q1022


Station Type Date Time Source
LICC Decoded METAR 2021/02/27 03:50 UTC NOAA

Catania / Fontanarossa, Italy (LICC) 37-28N 015-03E 17M
Feb 26, 2021 - 10:50 PM EST / 2021.02.27 0350 UTC
Wind: from the SW (220 degrees) at 5 MPH (4 KT):0
Visibility: greater than 7 mile(s):0
Temperature: 39 F (4 C)
Dew Point: 39 F (4 C)
Relative Humidity: 100%
Pressure (altimeter): 30.18 in. Hg (1022 hPa)
ob: LICC 270350Z 22004KT CAVOK 04/04 Q1022
cycle: 4

Station Type Date Time Source
LICC TAF 2021/02/26 18:21 UTC NOAA

TAF LICC 261700Z 2618/2718 VRB05KT CAVOK
TEMPO 2700/2706 3000 BR
BECMG 2708/2710 06012KT

Example: see airport list